createdAt,value
2017-10-28T00:01:27.761Z,2.53
2017-10-28T00:03:55.343Z,1.90
2017-10-28T00:06:23.008Z,2.13
2017-10-28T00:08:50.742Z,2.37
2017-10-28T00:11:18.433Z,2.45
2017-10-28T00:13:45.952Z,3.47
2017-10-28T00:16:13.431Z,3.13
2017-10-28T00:18:40.889Z,2.53
2017-10-28T00:21:08.738Z,3.80
2017-10-28T00:23:36.322Z,3.17
2017-10-28T00:26:03.784Z,1.97
2017-10-28T00:28:31.311Z,2.47
2017-10-28T00:31:04.339Z,2.50
2017-10-28T00:33:37.292Z,4.03
2017-10-28T00:38:46.949Z,3.08
2017-10-28T00:41:14.592Z,3.13
2017-10-28T00:43:42.164Z,3.23
2017-10-28T00:46:09.661Z,2.95
2017-10-28T00:48:37.174Z,2.80
2017-10-28T00:51:04.703Z,2.30
2017-10-28T00:53:32.212Z,2.50
2017-10-28T00:55:59.657Z,2.30
2017-10-28T00:58:27.233Z,2.10
2017-10-28T01:00:55.100Z,2.00
2017-10-28T01:03:22.556Z,2.80
2017-10-28T01:05:50.032Z,2.50
2017-10-28T01:08:17.618Z,3.30
2017-10-28T01:10:45.131Z,4.03
2017-10-28T01:13:12.697Z,2.60
2017-10-28T01:15:40.230Z,2.20
2017-10-28T01:18:07.850Z,2.30
2017-10-28T01:20:35.326Z,2.40
2017-10-28T01:23:02.849Z,2.80
2017-10-28T01:25:30.413Z,2.10
2017-10-28T01:27:57.924Z,2.10
2017-10-28T01:30:25.443Z,2.10
2017-10-28T01:32:52.923Z,1.93
2017-10-28T01:35:20.539Z,2.27
2017-10-28T01:37:48.040Z,3.33
2017-10-28T01:40:15.596Z,2.12
2017-10-28T01:42:43.197Z,2.13
2017-10-28T01:45:10.853Z,2.10
2017-10-28T01:47:38.337Z,2.30
2017-10-28T01:50:05.833Z,2.55
2017-10-28T01:52:33.985Z,2.73
2017-10-28T01:55:01.636Z,3.80
2017-10-28T01:57:29.140Z,4.33
2017-10-28T01:59:56.712Z,2.60
2017-10-28T02:02:24.327Z,3.43
2017-10-28T02:04:51.816Z,2.47
2017-10-28T02:07:19.299Z,2.53
2017-10-28T02:09:46.804Z,3.28
2017-10-28T02:12:14.221Z,2.83
2017-10-28T02:14:41.812Z,2.70
2017-10-28T02:17:09.322Z,2.47
2017-10-28T02:19:37.283Z,2.47
2017-10-28T02:22:05.082Z,2.57
2017-10-28T02:24:32.685Z,1.93
2017-10-28T02:27:00.240Z,2.33
2017-10-28T02:29:28.104Z,2.13
2017-10-28T02:31:55.713Z,5.00
2017-10-28T02:34:23.153Z,2.08
2017-10-28T02:36:50.710Z,2.17
2017-10-28T02:39:18.351Z,2.20
2017-10-28T02:41:45.853Z,2.37
2017-10-28T02:44:13.596Z,2.75
2017-10-28T02:46:41.136Z,6.57
2017-10-28T02:49:08.691Z,2.60
2017-10-28T02:51:36.302Z,2.47
2017-10-28T02:54:03.921Z,3.33
2017-10-28T02:56:31.573Z,1.90
2017-10-28T02:58:59.254Z,2.17
2017-10-28T03:01:26.833Z,2.70
2017-10-28T03:03:54.272Z,3.10
2017-10-28T03:06:21.900Z,4.07
2017-10-28T03:08:49.386Z,6.37
2017-10-28T03:11:16.833Z,5.40
2017-10-28T03:13:44.497Z,4.67
2017-10-28T03:16:11.983Z,3.13
2017-10-28T03:18:39.407Z,5.03
2017-10-28T03:21:06.985Z,3.90
2017-10-28T03:23:34.463Z,3.40
2017-10-28T03:26:02.057Z,3.20
2017-10-28T03:28:29.676Z,2.60
2017-10-28T03:30:57.128Z,3.10
2017-10-28T03:33:24.554Z,2.13
2017-10-28T03:35:52.123Z,2.12
2017-10-28T03:38:19.665Z,3.58
2017-10-28T03:40:47.171Z,3.60
2017-10-28T03:43:14.690Z,2.45
2017-10-28T03:45:42.190Z,2.47
2017-10-28T03:48:09.696Z,1.93
2017-10-28T03:50:37.285Z,2.20
2017-10-28T03:53:04.775Z,1.83
2017-10-28T03:55:32.407Z,2.20
2017-10-28T03:58:00.167Z,1.90
2017-10-28T04:00:27.670Z,2.10
2017-10-28T04:02:55.314Z,2.70
2017-10-28T04:05:22.875Z,3.87
2017-10-28T04:07:50.529Z,2.70
2017-10-28T04:10:18.091Z,2.35
2017-10-28T04:12:45.799Z,2.27
2017-10-28T04:15:13.805Z,2.83
2017-10-28T04:17:41.469Z,2.00
2017-10-28T04:20:09.152Z,3.37
2017-10-28T04:22:36.804Z,2.90
2017-10-28T04:25:04.429Z,3.80
2017-10-28T04:27:31.925Z,4.07
2017-10-28T04:29:59.586Z,3.00
2017-10-28T04:32:27.283Z,2.30
2017-10-28T04:34:54.863Z,2.30
2017-10-28T04:37:22.506Z,3.15
2017-10-28T04:39:50.055Z,4.05
2017-10-28T04:42:18.216Z,2.40
2017-10-28T04:44:45.781Z,3.00
2017-10-28T04:47:13.444Z,6.13
2017-10-28T04:49:41.000Z,4.57
2017-10-28T04:52:08.623Z,2.67
2017-10-28T04:54:36.251Z,3.25
2017-10-28T04:57:04.172Z,2.50
2017-10-28T04:59:31.790Z,2.00
2017-10-28T05:01:59.284Z,2.30
2017-10-28T05:04:27.037Z,2.27
2017-10-28T05:06:54.597Z,1.53
2017-10-28T05:09:22.234Z,5.43
2017-10-28T05:11:49.947Z,2.30
2017-10-28T05:14:17.546Z,1.90
2017-10-28T05:16:45.190Z,2.90
2017-10-28T05:19:12.691Z,2.40
2017-10-28T05:21:40.356Z,2.70
2017-10-28T05:24:07.975Z,2.10
2017-10-28T05:26:35.595Z,2.70
2017-10-28T05:29:03.169Z,2.30
2017-10-28T05:31:30.651Z,3.00
2017-10-28T05:33:58.267Z,2.90
2017-10-28T05:36:25.766Z,2.75
2017-10-28T05:38:53.305Z,2.78
2017-10-28T05:41:21.088Z,4.90
2017-10-28T05:43:48.668Z,3.25
2017-10-28T05:46:16.279Z,2.75
2017-10-28T05:48:44.268Z,2.63
2017-10-28T05:51:11.848Z,2.10
2017-10-28T05:53:39.325Z,2.33
2017-10-28T05:56:07.350Z,1.73
2017-10-28T05:58:34.856Z,3.00
2017-10-28T06:01:02.321Z,2.07
2017-10-28T06:03:30.162Z,1.87
2017-10-28T06:05:57.619Z,3.13
2017-10-28T06:08:25.221Z,2.60
2017-10-28T06:10:52.765Z,1.97
2017-10-28T06:13:20.294Z,2.67
2017-10-28T06:15:47.916Z,6.23
2017-10-28T06:18:15.802Z,4.35
2017-10-28T06:20:43.324Z,8.67
2017-10-28T06:23:11.141Z,5.53
2017-10-28T06:25:38.668Z,4.77
2017-10-28T06:28:06.187Z,3.17
2017-10-28T06:30:33.771Z,3.00
2017-10-28T06:33:01.457Z,3.50
2017-10-28T06:35:29.077Z,2.40
2017-10-28T06:37:56.661Z,2.20
2017-10-28T06:40:24.181Z,3.43
2017-10-28T06:42:51.795Z,2.20
2017-10-28T06:45:19.359Z,2.20
2017-10-28T06:47:47.135Z,3.13
2017-10-28T06:50:14.655Z,4.32
2017-10-28T06:52:42.196Z,2.73
2017-10-28T06:55:09.912Z,3.70
2017-10-28T06:57:37.521Z,3.27
2017-10-28T07:00:05.099Z,2.20
2017-10-28T07:02:32.780Z,3.00
2017-10-28T07:05:00.494Z,3.75
2017-10-28T07:07:28.126Z,2.10
2017-10-28T07:09:55.663Z,2.35
2017-10-28T07:12:23.152Z,3.47
2017-10-28T07:14:52.603Z,2.10
2017-10-28T07:17:21.085Z,2.47
2017-10-28T07:19:48.596Z,2.20
2017-10-28T07:22:16.148Z,2.67
2017-10-28T07:24:43.716Z,2.63
2017-10-28T07:27:11.319Z,2.90
2017-10-28T07:29:39.110Z,3.20
2017-10-28T07:32:07.120Z,3.20
2017-10-28T07:34:34.572Z,3.55
2017-10-28T07:37:03.453Z,3.87
2017-10-28T07:39:31.058Z,3.60
2017-10-28T07:41:58.497Z,3.73
2017-10-28T07:44:26.006Z,3.77
2017-10-28T07:46:54.438Z,3.20
2017-10-28T07:49:21.907Z,4.90
2017-10-28T07:51:49.890Z,6.00
2017-10-28T07:54:17.534Z,3.40
2017-10-28T07:56:46.630Z,7.70
2017-10-28T07:59:14.419Z,4.00
2017-10-28T08:01:42.107Z,3.40
2017-10-28T08:04:15.220Z,5.33
2017-10-28T08:06:42.763Z,6.03
2017-10-28T08:09:13.627Z,3.30
2017-10-28T08:11:41.127Z,3.97
2017-10-28T08:14:09.065Z,3.97
2017-10-28T08:16:38.163Z,3.80
2017-10-28T08:19:15.358Z,4.70
2017-10-28T08:21:44.245Z,4.20
2017-10-28T08:24:11.828Z,6.37
2017-10-28T08:26:39.388Z,5.20
2017-10-28T08:29:10.021Z,4.93
2017-10-28T08:31:37.572Z,5.12
2017-10-28T08:34:08.142Z,7.18
2017-10-28T08:36:35.796Z,6.33
2017-10-28T08:39:03.295Z,5.40
2017-10-28T08:41:30.837Z,6.40
2017-10-28T08:43:58.504Z,7.00
2017-10-28T08:46:26.037Z,4.12
2017-10-28T08:48:53.552Z,5.97
2017-10-28T08:51:21.167Z,6.80
2017-10-28T08:53:48.647Z,5.70
2017-10-28T08:56:16.327Z,8.82
2017-10-28T08:58:46.710Z,5.77
2017-10-28T09:01:14.304Z,6.23
2017-10-28T09:03:41.990Z,4.67
2017-10-28T09:06:09.736Z,5.57
2017-10-28T09:08:37.342Z,5.37
2017-10-28T09:11:05.206Z,6.73
2017-10-28T09:13:32.658Z,7.17
2017-10-28T09:16:01.138Z,8.50
2017-10-28T09:18:29.258Z,6.32
2017-10-28T09:21:00.786Z,6.40
2017-10-28T09:23:28.313Z,6.33
2017-10-28T09:25:55.958Z,5.50
2017-10-28T09:28:23.717Z,8.02
2017-10-28T09:30:51.261Z,7.00
2017-10-28T09:33:18.795Z,5.47
2017-10-28T09:35:46.390Z,6.30
2017-10-28T09:38:13.954Z,6.10
2017-10-28T09:40:41.507Z,7.20
2017-10-28T09:43:09.911Z,7.03
2017-10-28T09:45:37.555Z,7.73
2017-10-28T09:48:05.220Z,6.20
2017-10-28T09:50:33.693Z,7.10
2017-10-28T09:53:01.403Z,8.17
2017-10-28T09:55:28.894Z,6.87
2017-10-28T09:57:56.400Z,6.55
2017-10-28T10:00:23.875Z,7.37
2017-10-28T10:02:51.714Z,6.37
2017-10-28T10:05:19.293Z,7.07
2017-10-28T10:07:46.982Z,7.63
2017-10-28T10:10:14.557Z,6.70
2017-10-28T10:12:42.286Z,8.60
2017-10-28T10:15:10.026Z,8.67
2017-10-28T10:17:37.602Z,9.00
2017-10-28T10:20:05.321Z,9.30
2017-10-28T10:22:32.847Z,10.57
2017-10-28T10:25:00.473Z,8.93
2017-10-28T10:27:27.922Z,9.83
2017-10-28T10:29:55.655Z,7.47
2017-10-28T10:32:23.173Z,9.98
2017-10-28T10:34:50.752Z,10.87
2017-10-28T10:37:18.298Z,10.23
2017-10-28T10:39:46.115Z,10.40
2017-10-28T10:42:13.721Z,8.65
2017-10-28T10:44:41.328Z,7.80
2017-10-28T10:47:08.942Z,8.00
2017-10-28T10:49:36.636Z,7.40
2017-10-28T10:52:04.289Z,10.20
2017-10-28T10:54:31.886Z,7.60
2017-10-28T10:56:59.554Z,7.87
2017-10-28T10:59:27.039Z,8.90
2017-10-28T11:01:54.668Z,7.70
2017-10-28T11:04:22.273Z,7.30
2017-10-28T11:06:49.996Z,8.40
2017-10-28T11:09:17.713Z,9.97
2017-10-28T11:11:45.220Z,10.03
2017-10-28T11:14:12.732Z,8.20
2017-10-28T11:16:40.377Z,7.43
2017-10-28T11:19:08.134Z,6.90
2017-10-28T11:21:40.533Z,8.87
2017-10-28T11:24:08.249Z,7.60
2017-10-28T11:26:35.873Z,7.33
2017-10-28T11:29:03.457Z,8.83
2017-10-28T11:31:30.921Z,7.45
2017-10-28T11:33:58.474Z,7.60
2017-10-28T11:36:26.060Z,8.27
2017-10-28T11:38:53.845Z,9.20
2017-10-28T11:41:21.437Z,9.77
2017-10-28T11:43:49.132Z,8.60
2017-10-28T11:46:17.621Z,8.23
2017-10-28T11:48:44.422Z,6.17
2017-10-28T11:51:12.039Z,7.70
2017-10-28T11:53:39.525Z,6.73
2017-10-28T11:56:07.035Z,7.03
2017-10-28T11:58:34.738Z,7.40
2017-10-28T12:01:02.409Z,4.62
2017-10-28T12:03:30.062Z,5.43
2017-10-28T12:05:57.653Z,6.77
2017-10-28T12:08:25.197Z,5.23
2017-10-28T12:10:53.079Z,4.80
2017-10-28T12:13:20.714Z,3.80
2017-10-28T12:15:48.329Z,6.43
2017-10-28T12:18:17.775Z,4.80
2017-10-28T12:20:46.506Z,4.50
2017-10-28T12:23:14.982Z,6.43
2017-10-28T12:25:43.709Z,3.23
2017-10-28T12:28:11.230Z,3.20
2017-10-28T12:30:42.720Z,5.17
2017-10-28T12:33:10.228Z,3.13
2017-10-28T12:35:37.772Z,3.23
2017-10-28T12:38:05.227Z,3.63
2017-10-28T12:40:32.709Z,3.00
2017-10-28T12:43:01.610Z,3.80
2017-10-28T12:45:29.158Z,3.73
2017-10-28T12:47:56.963Z,2.80
2017-10-28T12:50:24.956Z,3.73
2017-10-28T12:52:52.567Z,2.30
2017-10-28T12:55:20.070Z,2.73
2017-10-28T12:57:48.189Z,3.27
2017-10-28T13:00:15.741Z,3.00
2017-10-28T13:02:43.419Z,2.83
2017-10-28T13:05:11.028Z,2.63
2017-10-28T13:07:38.617Z,2.10
2017-10-28T13:10:06.191Z,3.73
2017-10-28T13:12:33.855Z,2.27
2017-10-28T13:15:01.500Z,3.40
2017-10-28T13:17:28.989Z,3.27
2017-10-28T13:19:56.519Z,3.47
2017-10-28T13:22:24.135Z,5.00
2017-10-28T13:24:51.641Z,2.77
2017-10-28T13:27:19.251Z,1.73
2017-10-28T13:29:46.877Z,1.40
2017-10-28T13:32:14.329Z,3.60
2017-10-28T13:34:41.918Z,3.20
2017-10-28T13:37:09.472Z,2.80
2017-10-28T13:39:37.705Z,4.40
2017-10-28T13:42:05.271Z,2.50
2017-10-28T13:44:32.756Z,3.47
2017-10-28T13:47:00.292Z,1.93
2017-10-28T13:49:28.790Z,2.70
2017-10-28T13:51:56.548Z,1.33
2017-10-28T13:54:24.033Z,1.73
2017-10-28T13:56:51.574Z,2.30
2017-10-28T13:59:19.981Z,7.23
2017-10-28T14:01:47.573Z,2.80
2017-10-28T14:04:16.506Z,3.83
2017-10-28T14:06:44.355Z,6.70
2017-10-28T14:09:15.145Z,1.80
2017-10-28T14:11:42.949Z,2.93
2017-10-28T14:14:12.389Z,2.00
2017-10-28T14:16:40.066Z,2.13
2017-10-28T14:19:11.504Z,4.23
2017-10-28T14:21:39.044Z,2.80
2017-10-28T14:24:06.697Z,1.90
2017-10-28T14:26:34.679Z,3.80
2017-10-28T14:29:02.425Z,4.87
2017-10-28T14:31:29.881Z,3.63
2017-10-28T14:33:57.776Z,3.83
2017-10-28T14:36:25.470Z,2.20
2017-10-28T14:38:53.508Z,2.10
2017-10-28T14:41:21.690Z,2.40
2017-10-28T14:43:49.249Z,2.87
2017-10-28T14:46:17.029Z,3.33
2017-10-28T14:48:45.400Z,1.87
2017-10-28T14:51:12.952Z,4.23
2017-10-28T14:53:41.648Z,2.50
2017-10-28T14:56:09.243Z,5.57
2017-10-28T14:58:37.518Z,2.37
2017-10-28T15:01:05.065Z,2.63
2017-10-28T15:03:32.888Z,1.87
2017-10-28T15:06:00.443Z,2.63
2017-10-28T15:08:27.967Z,1.93
2017-10-28T15:10:55.538Z,2.53
2017-10-28T15:13:23.195Z,2.40
2017-10-28T15:15:50.795Z,1.90
2017-10-28T15:18:18.471Z,2.00
2017-10-28T15:20:46.165Z,3.17
2017-10-28T15:23:14.081Z,1.90
2017-10-28T15:25:42.000Z,2.87
2017-10-28T15:28:09.646Z,1.77
2017-10-28T15:30:37.413Z,2.37
2017-10-28T15:33:04.905Z,7.63
2017-10-28T15:35:32.454Z,7.00
2017-10-28T15:37:59.961Z,5.33
2017-10-28T15:40:27.999Z,2.23
2017-10-28T15:42:55.776Z,3.00
2017-10-28T15:45:23.427Z,2.10
2017-10-28T15:47:51.088Z,2.43
2017-10-28T15:50:18.653Z,2.00
2017-10-28T15:52:46.283Z,2.17
2017-10-28T15:55:15.405Z,2.80
2017-10-28T15:57:42.933Z,2.63
2017-10-28T16:00:10.660Z,2.83
2017-10-28T16:02:38.792Z,4.30
2017-10-28T16:05:06.348Z,2.57
2017-10-28T16:07:33.780Z,3.73
2017-10-28T16:10:01.470Z,5.73
2017-10-28T16:12:29.049Z,3.30
2017-10-28T16:14:56.604Z,2.33
2017-10-28T16:17:24.095Z,1.83
2017-10-28T16:19:51.621Z,3.23
2017-10-28T16:22:19.050Z,3.90
2017-10-28T16:24:46.648Z,3.03
2017-10-28T16:27:14.104Z,2.30
2017-10-28T16:29:41.656Z,3.23
2017-10-28T16:32:09.306Z,2.30
2017-10-28T16:34:36.870Z,3.20
2017-10-28T16:37:04.417Z,2.40
2017-10-28T16:39:32.270Z,2.97
2017-10-28T16:41:59.812Z,2.70
2017-10-28T16:44:27.279Z,4.07
2017-10-28T16:46:54.744Z,2.50
2017-10-28T16:49:22.455Z,4.80
2017-10-28T16:51:49.963Z,2.87
2017-10-28T16:54:17.853Z,2.80
2017-10-28T16:56:45.382Z,2.90
2017-10-28T16:59:12.940Z,3.07
2017-10-28T17:01:40.538Z,4.50
2017-10-28T17:04:08.181Z,2.07
2017-10-28T17:06:35.701Z,4.30
2017-10-28T17:09:03.285Z,4.30
2017-10-28T17:11:30.777Z,8.53
2017-10-28T17:13:58.355Z,3.27
2017-10-28T17:16:26.295Z,9.60
2017-10-28T17:18:53.826Z,4.50
2017-10-28T17:21:21.392Z,3.40
2017-10-28T17:23:48.998Z,2.87
2017-10-28T17:26:16.688Z,6.57
2017-10-28T17:28:44.379Z,9.53
2017-10-28T17:31:12.054Z,21.20
2017-10-28T17:33:39.759Z,10.60
2017-10-28T17:36:07.194Z,3.30
2017-10-28T17:38:34.807Z,6.65
2017-10-28T17:41:02.403Z,3.00
2017-10-28T17:43:29.861Z,2.30
2017-10-28T17:45:57.496Z,2.90
2017-10-28T17:48:25.608Z,5.67
2017-10-28T17:50:53.134Z,7.33
2017-10-28T17:53:20.835Z,4.90
2017-10-28T17:55:48.511Z,3.63
2017-10-28T17:58:16.145Z,3.50
2017-10-28T18:00:43.891Z,4.30
2017-10-28T18:03:12.280Z,5.83
2017-10-28T18:05:40.014Z,5.70
2017-10-28T18:08:07.758Z,4.23
2017-10-28T18:10:35.597Z,4.37
2017-10-28T18:13:03.147Z,4.73
2017-10-28T18:15:30.883Z,3.55
2017-10-28T18:17:58.412Z,3.10
2017-10-28T18:20:26.082Z,5.53
2017-10-28T18:22:53.776Z,2.83
2017-10-28T18:25:21.307Z,4.47
2017-10-28T18:27:48.915Z,3.23
2017-10-28T18:30:16.937Z,3.20
2017-10-28T18:32:44.442Z,4.73
2017-10-28T18:35:12.029Z,3.80
2017-10-28T18:37:39.623Z,2.60
2017-10-28T18:40:07.739Z,6.00
2017-10-28T18:42:35.499Z,4.80
2017-10-28T18:45:03.139Z,4.37
2017-10-28T18:47:30.855Z,3.83
2017-10-28T18:49:58.988Z,3.10
2017-10-28T18:52:26.861Z,2.93
2017-10-28T18:54:54.635Z,3.53
2017-10-28T18:57:22.273Z,4.50
2017-10-28T18:59:49.971Z,3.27
2017-10-28T19:02:17.587Z,3.73
2017-10-28T19:04:45.308Z,3.63
2017-10-28T19:07:13.003Z,4.50
2017-10-28T19:09:40.526Z,7.63
2017-10-28T19:12:08.125Z,3.23
2017-10-28T19:14:35.790Z,4.80
2017-10-28T19:17:03.499Z,3.77
2017-10-28T19:19:31.367Z,3.70
2017-10-28T19:21:59.180Z,3.93
2017-10-28T19:24:26.848Z,5.77
2017-10-28T19:26:54.424Z,5.50
2017-10-28T19:29:21.974Z,4.47
2017-10-28T19:31:49.618Z,3.23
2017-10-28T19:34:17.266Z,4.17
2017-10-28T19:36:44.914Z,3.53
2017-10-28T19:39:12.431Z,4.27
2017-10-28T19:41:41.881Z,4.60
2017-10-28T19:44:09.680Z,2.53
2017-10-28T19:46:37.277Z,3.70
2017-10-28T19:49:05.119Z,2.50
2017-10-28T19:51:32.691Z,3.13
2017-10-28T19:54:00.286Z,3.10
2017-10-28T19:56:27.878Z,6.43
2017-10-28T19:58:56.092Z,4.10
2017-10-28T20:01:23.606Z,5.18
2017-10-28T20:03:51.906Z,3.03
2017-10-28T20:06:19.524Z,3.10
2017-10-28T20:08:47.027Z,2.03
2017-10-28T20:11:14.561Z,1.70
2017-10-28T20:13:42.161Z,9.07
2017-10-28T20:16:10.483Z,2.60
2017-10-28T20:18:38.252Z,2.10
2017-10-28T20:21:05.959Z,2.10
2017-10-28T20:23:33.497Z,4.17
2017-10-28T20:26:01.044Z,2.53
2017-10-28T20:28:29.021Z,2.07
2017-10-28T20:30:57.746Z,5.00
2017-10-28T20:33:25.503Z,4.00
2017-10-28T20:35:53.027Z,2.67
2017-10-28T20:38:20.783Z,2.83
2017-10-28T20:40:48.379Z,2.27
2017-10-28T20:43:15.948Z,1.97
2017-10-28T20:45:43.610Z,3.15
2017-10-28T20:48:11.336Z,2.77
2017-10-28T20:50:38.986Z,2.10
2017-10-28T20:53:06.973Z,1.90
2017-10-28T20:55:35.476Z,2.20
2017-10-28T20:58:03.049Z,3.20
2017-10-28T21:00:30.661Z,3.50
2017-10-28T21:02:58.189Z,3.30
2017-10-28T21:05:25.797Z,3.63
2017-10-28T21:07:53.372Z,2.90
2017-10-28T21:10:21.287Z,4.35
2017-10-28T21:12:49.148Z,3.80
2017-10-28T21:15:16.734Z,2.80
2017-10-28T21:17:45.309Z,3.07
2017-10-28T21:20:12.920Z,2.22
2017-10-28T21:22:40.556Z,3.57
2017-10-28T21:25:08.106Z,2.33
2017-10-28T21:27:39.194Z,2.33
2017-10-28T21:30:06.690Z,2.17
2017-10-28T21:32:34.172Z,2.20
2017-10-28T21:35:01.686Z,5.03
2017-10-28T21:37:29.174Z,2.90
2017-10-28T21:39:56.767Z,6.87
2017-10-28T21:42:24.534Z,4.30
2017-10-28T21:44:51.991Z,3.40
2017-10-28T21:47:19.504Z,2.63
2017-10-28T21:49:47.130Z,2.63
2017-10-28T21:52:14.686Z,2.75
2017-10-28T21:54:42.263Z,7.77
2017-10-28T21:57:09.730Z,4.10
2017-10-28T21:59:38.028Z,2.80
2017-10-28T22:02:05.682Z,2.33
2017-10-28T22:04:33.478Z,2.67
2017-10-28T22:07:00.965Z,2.73
2017-10-28T22:09:28.541Z,4.43
2017-10-28T22:11:56.166Z,4.10
2017-10-28T22:14:24.744Z,3.75
2017-10-28T22:16:52.286Z,3.30
2017-10-28T22:19:19.880Z,2.53
2017-10-28T22:21:47.389Z,6.17
2017-10-28T22:24:14.934Z,3.93
2017-10-28T22:26:42.409Z,5.60
2017-10-28T22:29:09.927Z,4.27
2017-10-28T22:31:37.432Z,3.37
2017-10-28T22:34:05.344Z,3.30
2017-10-28T22:36:32.812Z,3.00
2017-10-28T22:39:00.407Z,4.55
2017-10-28T22:41:27.961Z,2.83
2017-10-28T22:43:55.521Z,4.77
2017-10-28T22:46:23.194Z,2.92
2017-10-28T22:48:50.715Z,2.50
2017-10-28T22:51:18.341Z,2.40
2017-10-28T22:53:45.887Z,5.37
2017-10-28T22:56:13.396Z,3.20
2017-10-28T22:58:40.861Z,3.07
2017-10-28T23:01:08.415Z,4.90
2017-10-28T23:03:36.555Z,3.42
2017-10-28T23:06:04.163Z,12.70
2017-10-28T23:08:31.788Z,6.07
2017-10-28T23:10:59.534Z,5.83
2017-10-28T23:13:27.021Z,3.13
2017-10-28T23:15:54.541Z,2.90
2017-10-28T23:18:22.412Z,12.07
2017-10-28T23:20:50.016Z,5.53
2017-10-28T23:23:17.487Z,2.65
2017-10-28T23:25:45.180Z,3.28
2017-10-28T23:28:12.595Z,3.22
2017-10-28T23:30:40.146Z,3.07
2017-10-28T23:33:07.696Z,3.00
2017-10-28T23:35:35.263Z,2.80
2017-10-28T23:38:02.799Z,3.20
2017-10-28T23:40:30.480Z,2.13
2017-10-28T23:42:57.988Z,3.27
2017-10-28T23:45:25.525Z,1.67
2017-10-28T23:47:53.710Z,7.07
2017-10-28T23:50:21.284Z,3.95
2017-10-28T23:52:48.968Z,3.70
2017-10-28T23:55:16.445Z,2.40
2017-10-28T23:57:44.031Z,3.50
